Terminal Aerodrome Forecast
Issued by NWS Albany, NY

Home | Current Version | Previous Version | Text Only | Print | Product List | Glossary On
Versions: 1 2 3 4 5 6 7 8 9 10 11 12 13 14 15
000
FTUS41 KALY 291137
TAFGFL
TAF
KGFL 291137Z 2912/3012 36005KT P6SM SKC
     FM291600 03009G16KT P6SM SCT250
     FM300300 01005KT P6SM FEW250
     FM300700 VRB03KT 4SM BR FEW003=

USA.gov is the U.S. government's official web portal to all federal, state and local government web resources and services.